Time;durP1;ratioP1;P1;durP2;ratioP2;P2;SDS_P1;SDS_P2;PMS_P1;PMS_P2;Temp;Humidity;BMP_temperature;BMP_pressure;BME280_temperature;BME280_humidity;BME280_pressure;Samples;Min_cycle;Max_cycle;Signal;HPM_P1;HPM_P2
2023/04/01 00:00:12;;;;;;;26.83;5.83;;;;;;;-145.18;100.00;46672.13;6153984;23;20009;-73
2023/04/01 00:02:37;;;;;;;18.53;4.80;;;;;;;-145.18;100.00;46666.25;6153191;23;20383;-73
2023/04/01 00:05:03;;;;;;;20.07;4.93;;;;;;;-145.18;100.00;46670.16;6153653;23;20037;-73
2023/04/01 00:07:28;;;;;;;23.60;5.90;;;;;;;-145.18;100.00;46666.25;6153619;23;20495;-73
2023/04/01 00:09:54;;;;;;;21.47;4.83;;;;;;;-145.18;100.00;46670.16;6153592;23;20017;-73
2023/04/01 00:12:20;;;;;;;21.47;5.93;;;;;;;-145.18;100.00;46666.25;6153511;23;20006;-73
2023/04/01 00:14:45;;;;;;;20.50;6.13;;;;;;;-145.18;100.00;46670.16;6153854;23;20016;-73
2023/04/01 00:17:11;;;;;;;24.67;7.60;;;;;;;-145.18;100.00;46670.16;6153353;23;20016;-73
2023/04/01 00:19:36;;;;;;;26.17;8.43;;;;;;;-145.18;100.00;46664.31;6152371;23;20084;-73
2023/04/01 00:22:02;;;;;;;30.00;7.60;;;;;;;-145.18;100.00;46672.13;6153182;23;20048;-72
2023/04/01 00:24:27;;;;;;;26.47;6.93;;;;;;;-145.18;100.00;46666.25;6153948;23;20013;-73
2023/04/01 00:26:53;;;;;;;30.73;8.90;;;;;;;-145.18;100.00;46670.16;6153568;23;20009;-72
2023/04/01 00:29:18;;;;;;;37.33;9.23;;;;;;;-145.18;100.00;46670.16;6153502;23;20014;-72
2023/04/01 00:31:44;;;;;;;44.07;11.43;;;;;;;-145.18;100.00;46668.22;6151986;23;20001;-73
2023/04/01 00:34:09;;;;;;;37.87;11.07;;;;;;;-145.18;100.00;46676.03;6153648;23;20006;-73
2023/04/01 00:36:35;;;;;;;46.03;11.87;;;;;;;-145.18;100.00;46672.13;6153283;23;20016;-73
2023/04/01 00:39:00;;;;;;;41.47;10.37;;;;;;;-145.18;100.00;46668.22;6153746;23;20021;-72
2023/04/01 00:41:26;;;;;;;35.63;9.57;;;;;;;-145.18;100.00;46674.06;6151968;23;20016;-72
2023/04/01 00:43:52;;;;;;;45.00;13.20;;;;;;;-145.18;100.00;46668.22;6153849;23;20006;-73
2023/04/01 00:46:18;;;;;;;56.83;13.50;;;;;;;-145.18;100.00;46664.31;6153061;23;20006;-72
2023/04/01 00:48:55;;;;;;;49.50;11.27;;;;;;;-145.18;100.00;46672.13;6153654;23;20258;-72
2023/04/01 00:51:25;;;;;;;55.47;13.30;;;;;;;-145.18;100.00;46672.13;6151671;23;20232;-72
2023/04/01 00:53:54;;;;;;;64.40;11.93;;;;;;;-145.18;100.00;46674.06;6153726;23;20281;-72
2023/04/01 00:56:27;;;;;;;60.60;15.97;;;;;;;-145.18;100.00;46668.22;6153049;23;20255;-72
2023/04/01 00:59:03;;;;;;;62.33;13.40;;;;;;;-145.18;100.00;46668.22;6153837;23;20303;-72
2023/04/01 01:01:30;;;;;;;53.90;13.23;;;;;;;-145.18;100.00;46672.13;6153451;23;20246;-72
2023/04/01 01:03:56;;;;;;;56.17;13.10;;;;;;;-145.18;100.00;46668.22;6152991;23;20306;-72
2023/04/01 01:06:50;;;;;;;43.67;11.53;;;;;;;-145.18;100.00;46672.13;6153204;23;20236;-72
2023/04/01 01:09:18;;;;;;;58.03;13.30;;;;;;;-145.18;100.00;46668.22;6153005;23;20013;-72
2023/04/01 01:12:12;;;;;;;59.67;13.27;;;;;;;-145.18;100.00;46670.16;6153111;23;20306;-72
2023/04/01 01:14:37;;;;;;;54.13;13.77;;;;;;;-145.18;100.00;46674.06;6153267;23;20220;-73
2023/04/01 01:17:16;;;;;;;55.17;13.20;;;;;;;-145.18;100.00;46676.03;6152651;23;20315;-72
2023/04/01 01:19:56;;;;;;;48.53;11.40;;;;;;;-145.18;100.00;46666.25;6153271;23;20002;-73
2023/04/01 01:22:46;;;;;;;40.17;10.80;;;;;;;-145.18;100.00;46664.31;6152989;23;20286;-72
2023/04/01 01:25:42;;;;;;;46.37;12.37;;;;;;;-145.18;100.00;46668.22;6153079;23;20724;-72
2023/04/01 01:28:31;;;;;;;51.13;13.45;;;;;;;-145.18;100.00;46670.16;6152845;23;20402;-73
2023/04/01 01:31:09;;;;;;;60.80;14.70;;;;;;;-145.18;100.00;46670.16;6152842;23;20036;-73
2023/04/01 01:33:59;;;;;;;51.03;14.73;;;;;;;-145.18;100.00;46672.13;6153219;23;21085;-72
2023/04/01 01:36:31;;;;;;;58.87;15.33;;;;;;;-145.18;100.00;46670.16;6152816;23;20231;-73
2023/04/01 01:38:57;;;;;;;42.87;11.30;;;;;;;-145.18;100.00;46672.13;6152795;23;20231;-73
2023/04/01 01:41:26;;;;;;;55.53;15.83;;;;;;;-145.18;100.00;46660.41;6152928;23;20274;-73
2023/04/01 01:43:56;;;;;;;48.07;13.97;;;;;;;-145.18;100.00;46668.22;6153214;23;20291;-72
2023/04/01 01:46:24;;;;;;;46.73;10.90;;;;;;;-145.18;100.00;46670.16;6153164;23;20259;-73
2023/04/01 01:48:51;;;;;;;50.03;12.83;;;;;;;-145.18;100.00;46666.25;6153030;23;20251;-72
2023/04/01 01:51:19;;;;;;;45.57;11.30;;;;;;;-145.18;100.00;46668.22;6152354;23;20232;-72
2023/04/01 01:53:44;;;;;;;43.87;11.33;;;;;;;-145.18;100.00;46666.25;6153143;23;20747;-72
2023/04/01 01:56:12;;;;;;;46.23;12.57;;;;;;;-145.18;100.00;46670.16;6152829;23;20255;-72
2023/04/01 01:58:56;;;;;;;39.03;9.67;;;;;;;-145.18;100.00;46666.25;6152685;23;20005;-72
2023/04/01 02:03:58;;;;;;;32.10;9.07;;;;;;;-145.18;100.00;46666.25;6173786;23;20749;-72
2023/04/01 02:06:27;;;;;;;30.77;8.37;;;;;;;-145.18;100.00;46664.31;6155872;23;20024;-72
2023/04/01 02:09:05;;;;;;;33.23;7.97;;;;;;;-145.18;100.00;46668.22;6181912;23;20278;-72
2023/04/01 02:11:53;;;;;;;35.37;9.00;;;;;;;-145.18;100.00;46666.25;6182741;23;20235;-73
2023/04/01 02:14:44;;;;;;;42.30;11.13;;;;;;;-145.18;100.00;46670.16;6182733;23;20548;-73
2023/04/01 02:17:14;;;;;;;42.83;9.87;;;;;;;-145.18;100.00;46668.22;6175445;23;20235;-73
2023/04/01 02:19:51;;;;;;;35.93;9.77;;;;;;;-145.18;100.00;46666.25;6183128;23;20227;-73
2023/04/01 02:22:25;;;;;;;40.37;9.80;;;;;;;-145.18;100.00;46672.13;6182512;23;20230;-73
2023/04/01 02:24:54;;;;;;;36.03;9.23;;;;;;;-145.18;100.00;46666.25;6182612;23;20310;-73
2023/04/01 02:27:20;;;;;;;37.17;9.83;;;;;;;-145.18;100.00;46666.25;6182619;23;20227;-73
2023/04/01 02:29:46;;;;;;;40.90;9.87;;;;;;;-145.18;100.00;46666.25;6181251;23;20281;-73
2023/04/01 02:32:14;;;;;;;42.17;10.73;;;;;;;-145.18;100.00;46668.22;6181991;23;21020;-72
2023/04/01 02:34:40;;;;;;;31.73;10.67;;;;;;;-145.18;100.00;46672.13;6182425;23;20599;-72
2023/04/01 02:37:06;;;;;;;29.30;9.93;;;;;;;-145.18;100.00;46668.22;6182466;23;20719;-72
2023/04/01 02:39:31;;;;;;;38.67;10.87;;;;;;;-145.18;100.00;46668.22;6181105;23;20300;-72
2023/04/01 02:41:57;;;;;;;30.43;9.00;;;;;;;-145.18;100.00;46670.16;6182296;23;20342;-72
2023/04/01 02:44:22;;;;;;;37.87;9.33;;;;;;;-145.18;100.00;46666.25;6182419;23;20015;-72
2023/04/01 02:46:47;;;;;;;30.07;10.13;;;;;;;-145.18;100.00;46670.16;6181105;23;20009;-72
2023/04/01 02:49:13;;;;;;;33.93;9.87;;;;;;;-145.18;100.00;46666.25;6181672;23;20020;-72
2023/04/01 02:51:38;;;;;;;33.83;10.17;;;;;;;-145.18;100.00;46666.25;6182538;23;20002;-72
2023/04/01 02:54:04;;;;;;;31.03;10.30;;;;;;;-145.18;100.00;46666.25;6181876;23;20001;-72
2023/04/01 02:56:29;;;;;;;25.90;10.37;;;;;;;-145.18;100.00;46662.34;6182264;23;20493;-72
2023/04/01 02:58:55;;;;;;;21.20;9.00;;;;;;;-145.18;100.00;46668.22;6180383;23;20083;-72
2023/04/01 03:01:21;;;;;;;27.07;7.93;;;;;;;-145.18;100.00;46672.13;6182091;23;20330;-72
2023/04/01 03:03:46;;;;;;;26.63;8.33;;;;;;;-145.18;100.00;46668.22;6181952;23;20017;-72
2023/04/01 03:06:14;;;;;;;20.93;8.07;;;;;;;-145.18;100.00;46666.25;6180581;23;20005;-72
2023/04/01 03:08:40;;;;;;;27.10;8.87;;;;;;;-145.18;100.00;46670.16;6181624;23;20043;-72
2023/04/01 03:11:05;;;;;;;28.60;8.37;;;;;;;-145.18;100.00;46668.22;6181966;23;20285;-73
2023/04/01 03:13:31;;;;;;;20.07;8.00;;;;;;;-145.18;100.00;46664.31;6182113;23;20235;-72
2023/04/01 03:15:57;;;;;;;23.20;6.80;;;;;;;-145.18;100.00;46666.25;6181923;23;20327;-73
2023/04/01 03:18:22;;;;;;;20.83;7.23;;;;;;;-145.18;100.00;46664.31;6182054;23;20009;-73
2023/04/01 03:20:48;;;;;;;18.73;5.70;;;;;;;-145.18;100.00;46668.22;6182294;23;20096;-73
2023/04/01 03:23:13;;;;;;;16.90;5.27;;;;;;;-145.18;100.00;46664.31;6181581;23;20013;-73
2023/04/01 03:25:39;;;;;;;16.23;6.10;;;;;;;-145.18;100.00;46668.22;6182339;23;20009;-73
2023/04/01 03:28:04;;;;;;;17.63;6.27;;;;;;;-145.18;100.00;46666.25;6181535;23;20005;-73
2023/04/01 03:30:31;;;;;;;12.17;4.80;;;;;;;-145.18;100.00;46666.25;6180266;23;20009;-73
2023/04/01 03:32:57;;;;;;;22.70;6.37;;;;;;;-145.18;100.00;46670.16;6181895;23;20015;-73
2023/04/01 03:35:23;;;;;;;14.50;3.83;;;;;;;-145.18;100.00;46666.25;6182368;23;20245;-73
2023/04/01 03:37:51;;;;;;;13.80;4.80;;;;;;;-145.18;100.00;46670.16;6181657;23;20235;-73
2023/04/01 03:40:16;;;;;;;13.93;4.57;;;;;;;-145.18;100.00;46672.13;6181993;23;20012;-73
2023/04/01 03:42:42;;;;;;;13.70;5.43;;;;;;;-145.18;100.00;46666.25;6182100;23;20227;-73
2023/04/01 03:45:07;;;;;;;14.57;4.27;;;;;;;-145.18;100.00;46662.34;6181915;23;20017;-72
2023/04/01 03:47:33;;;;;;;15.27;5.00;;;;;;;-145.18;100.00;46664.31;6181855;23;20462;-72
2023/04/01 03:49:59;;;;;;;13.43;4.73;;;;;;;-145.18;100.00;46668.22;6181829;23;20605;-73
2023/04/01 03:52:24;;;;;;;12.87;3.93;;;;;;;-145.18;100.00;46668.22;6182019;23;20342;-72
2023/04/01 03:54:49;;;;;;;13.30;4.80;;;;;;;-145.18;100.00;46668.22;6182330;23;20386;-72
2023/04/01 03:57:15;;;;;;;10.70;4.03;;;;;;;-145.18;100.00;46670.16;6181835;23;20035;-72
2023/04/01 03:59:40;;;;;;;11.37;4.73;;;;;;;-145.18;100.00;46666.25;6182254;23;20017;-73
2023/04/01 04:02:06;;;;;;;11.13;3.93;;;;;;;-145.18;100.00;46662.34;6181518;23;20005;-73
2023/04/01 04:04:31;;;;;;;16.43;4.60;;;;;;;-145.18;100.00;46674.06;6181964;23;20060;-73
2023/04/01 04:06:57;;;;;;;13.00;4.83;;;;;;;-145.18;100.00;46662.34;6181397;23;20013;-73
2023/04/01 04:09:22;;;;;;;10.83;5.07;;;;;;;-145.18;100.00;46668.22;6181496;23;20009;-73
2023/04/01 04:11:49;;;;;;;10.17;5.13;;;;;;;-145.18;100.00;46664.31;6182626;23;20006;-72
2023/04/01 04:14:14;;;;;;;12.30;6.03;;;;;;;-145.18;100.00;46664.31;6181763;23;20009;-73
2023/04/01 04:16:40;;;;;;;11.40;6.30;;;;;;;-145.18;100.00;46668.22;6182211;23;20223;-73
2023/04/01 04:19:05;;;;;;;14.30;7.83;;;;;;;-145.18;100.00;46668.22;6181697;23;20012;-73
2023/04/01 04:21:31;;;;;;;14.03;8.07;;;;;;;-145.18;100.00;46662.34;6183202;23;20005;-73
2023/04/01 04:23:59;;;;;;;14.87;8.43;;;;;;;-145.18;100.00;46670.16;6183451;23;20434;-73
2023/04/01 04:26:25;;;;;;;16.87;8.90;;;;;;;-145.18;100.00;46668.22;6183861;23;20020;-73
2023/04/01 04:28:50;;;;;;;13.67;7.37;;;;;;;-145.18;100.00;46668.22;6183586;23;20250;-73
2023/04/01 04:31:21;;;;;;;14.37;7.30;;;;;;;-145.18;100.00;46666.25;6182083;23;20617;-73
2023/04/01 04:33:47;;;;;;;16.77;7.93;;;;;;;-145.18;100.00;46664.31;6183570;23;20005;-74
2023/04/01 04:36:12;;;;;;;15.87;8.90;;;;;;;-145.18;100.00;46664.31;6183396;23;20234;-73
2023/04/01 04:38:38;;;;;;;17.27;8.13;;;;;;;-145.18;100.00;46662.34;6183431;23;20020;-73
2023/04/01 04:41:08;;;;;;;21.67;8.97;;;;;;;-145.18;100.00;46660.41;6183597;23;20005;-74
2023/04/01 04:43:34;;;;;;;20.90;10.73;;;;;;;-145.18;100.00;46664.31;6183668;23;20005;-74
2023/04/01 04:45:59;;;;;;;22.50;10.73;;;;;;;-145.18;100.00;46664.31;6183516;23;20292;-74
2023/04/01 04:48:25;;;;;;;26.50;11.73;;;;;;;-145.18;100.00;46668.22;6183150;23;20009;-74
2023/04/01 04:50:50;;;;;;;29.03;11.30;;;;;;;-145.18;100.00;46666.25;6183351;23;20009;-74
2023/04/01 04:53:18;;;;;;;28.20;12.03;;;;;;;-145.18;100.00;46660.41;6179826;23;20401;-74
2023/04/01 04:55:48;;;;;;;29.63;12.90;;;;;;;-145.18;100.00;46664.31;6179111;23;20005;-74
2023/04/01 04:58:14;;;;;;;34.47;13.00;;;;;;;-145.18;100.00;46660.41;6179974;23;20572;-75
2023/04/01 05:00:39;;;;;;;35.47;14.63;;;;;;;-145.18;100.00;46666.25;6183707;23;20227;-75
2023/04/01 05:03:05;;;;;;;37.63;15.03;;;;;;;-145.18;100.00;46654.53;6182423;23;20627;-74
2023/04/01 05:05:30;;;;;;;46.40;14.83;;;;;;;-145.18;100.00;46664.31;6183606;23;20442;-74
2023/04/01 05:07:56;;;;;;;44.10;13.77;;;;;;;-145.18;100.00;46664.31;6183038;23;20084;-74
2023/04/01 05:10:21;;;;;;;29.20;11.70;;;;;;;-145.18;100.00;46664.31;6181777;23;20465;-75
2023/04/01 05:12:46;;;;;;;50.83;16.90;;;;;;;-145.18;100.00;46658.44;6183278;23;20084;-74
2023/04/01 05:15:12;;;;;;;41.17;14.27;;;;;;;-145.18;100.00;46660.41;6183252;23;20443;-74
2023/04/01 05:17:37;;;;;;;43.27;16.40;;;;;;;-145.18;100.00;46662.34;6183219;23;20009;-75
2023/04/01 05:20:04;;;;;;;43.20;14.37;;;;;;;-145.18;100.00;46660.41;6181536;23;20017;-75
2023/04/01 05:22:29;;;;;;;49.63;16.87;;;;;;;-145.18;100.00;46660.41;6183418;23;20009;-75
2023/04/01 05:24:55;;;;;;;39.33;15.00;;;;;;;-145.18;100.00;46664.31;6183150;23;20235;-74
2023/04/01 05:27:20;;;;;;;39.37;13.80;;;;;;;-145.18;100.00;46664.31;6183146;23;20342;-74
2023/04/01 05:29:46;;;;;;;39.90;12.93;;;;;;;-145.18;100.00;46658.44;6183029;23;20009;-75
2023/04/01 05:32:11;;;;;;;45.50;15.40;;;;;;;-145.18;100.00;46664.31;6182516;23;20040;-75
2023/04/01 05:34:36;;;;;;;43.80;15.83;;;;;;;-145.18;100.00;46660.41;6183195;23;20005;-75
2023/04/01 05:37:02;;;;;;;37.50;14.40;;;;;;;-145.18;100.00;46666.25;6182369;23;20088;-75
2023/04/01 05:39:27;;;;;;;49.97;14.30;;;;;;;-145.18;100.00;46658.44;6182804;23;20665;-75
2023/04/01 05:41:52;;;;;;;43.33;15.50;;;;;;;-145.18;100.00;46658.44;6182848;23;20075;-75
2023/04/01 05:44:18;;;;;;;50.23;15.00;;;;;;;-145.18;100.00;46658.44;6182533;23;20056;-75
2023/04/01 05:46:43;;;;;;;51.30;16.97;;;;;;;-145.18;100.00;46662.34;6182944;23;20448;-75
2023/04/01 05:49:09;;;;;;;47.53;16.07;;;;;;;-145.18;100.00;46658.44;6182414;23;20028;-75
2023/04/01 05:51:34;;;;;;;36.03;13.53;;;;;;;-145.18;100.00;46662.34;6181293;23;20442;-75
2023/04/01 05:53:59;;;;;;;43.80;15.27;;;;;;;-145.18;100.00;46662.34;6180698;23;20353;-74
2023/04/01 05:56:25;;;;;;;38.30;14.43;;;;;;;-145.18;100.00;46666.25;6182551;23;20342;-75
2023/04/01 05:58:53;;;;;;;38.73;13.97;;;;;;;-145.18;100.00;46658.44;6182520;23;20016;-75
2023/04/01 06:01:19;;;;;;;54.40;19.30;;;;;;;-145.18;100.00;46668.22;6182582;23;20001;-74
2023/04/01 06:03:45;;;;;;;43.80;17.97;;;;;;;-145.18;100.00;46658.44;6182396;23;20261;-74
2023/04/01 06:06:16;;;;;;;33.83;14.00;;;;;;;-145.18;100.00;46664.31;6182602;23;20235;-74
2023/04/01 06:08:42;;;;;;;43.30;15.87;;;;;;;-145.18;100.00;46656.50;6173829;23;20083;-74
2023/04/01 06:11:28;;;;;;;37.50;15.00;;;;;;;-145.18;100.00;46660.41;6182396;23;20238;-75
2023/04/01 06:14:12;;;;;;;;;;;;;;;-145.18;100.00;46666.25;6183242;23;20231;-75
2023/04/01 06:17:15;;;;;;;38.83;15.53;;;;;;;-145.18;100.00;46662.34;6182674;23;19915;-74
2023/04/01 06:20:08;;;;;;;36.03;14.60;;;;;;;-145.18;100.00;46666.25;6182217;23;20255;-74
2023/04/01 06:23:03;;;;;;;31.37;13.80;;;;;;;-145.18;100.00;46662.34;6182001;23;20660;-75
2023/04/01 06:25:53;;;;;;;36.47;15.27;;;;;;;-145.18;100.00;46662.34;6182029;23;20223;-75
2023/04/01 06:29:09;;;;;;;34.23;13.30;;;;;;;-145.18;100.00;46662.34;6179523;23;20278;-74
2023/04/01 06:31:46;;;;;;;40.00;15.33;;;;;;;-145.18;100.00;46664.31;6132543;23;20347;-74
2023/04/01 06:34:31;;;;;;;34.10;11.80;;;;;;;-145.18;100.00;46664.31;6181962;23;20220;-75
2023/04/01 06:37:03;;;;;;;30.52;11.02;;;;;;;-145.18;100.00;46664.31;6182127;23;20238;-75
2023/04/01 06:40:06;;;;;;;32.77;11.90;;;;;;;-145.18;100.00;46662.34;6181800;23;20430;-75
2023/04/01 06:43:01;;;;;;;40.47;13.87;;;;;;;-145.18;100.00;46658.44;6182388;23;20231;-74
2023/04/01 06:45:46;;;;;;;38.93;14.37;;;;;;;-145.18;100.00;46666.25;6182348;23;20230;-74
2023/04/01 06:48:28;;;;;;;38.78;14.15;;;;;;;-145.18;100.00;46666.25;6181407;23;20290;-74
2023/04/01 06:50:56;;;;;;;32.03;13.20;;;;;;;-145.18;100.00;46662.34;6182189;23;20001;-74
2023/04/01 06:53:34;;;;;;;40.63;14.27;;;;;;;-145.18;100.00;46662.34;6181736;23;20230;-74
2023/04/01 06:56:07;;;;;;;38.77;13.43;;;;;;;-145.18;100.00;46660.41;6181832;23;20223;-74
2023/04/01 06:58:53;;;;;;;26.70;10.13;;;;;;;-145.18;100.00;46666.25;6181622;23;20293;-74
2023/04/01 07:01:26;;;;;;;34.43;12.50;;;;;;;-145.18;100.00;46664.31;6181731;23;20219;-74
2023/04/01 07:04:32;;;;;;;32.00;13.23;;;;;;;-145.18;100.00;46660.41;6181605;23;20251;-74
2023/04/01 07:07:01;;;;;;;34.23;12.67;;;;;;;-145.18;100.00;46664.31;6169209;23;20251;-74
2023/04/01 07:09:38;;;;;;;34.70;13.70;;;;;;;-145.18;100.00;46664.31;6181842;23;20759;-74
2023/04/01 07:12:33;;;;;;;36.67;14.10;;;;;;;-145.18;100.00;46664.31;6181782;23;20297;-74
2023/04/01 07:15:12;;;;;;;37.90;14.83;;;;;;;-145.18;100.00;46666.25;6181856;23;20234;-74
2023/04/01 07:17:41;;;;;;;45.30;17.67;;;;;;;-145.18;100.00;46662.34;6182256;23;20231;-75
2023/04/01 07:20:28;;;;;;;35.80;15.37;;;;;;;-145.18;100.00;46666.25;6181430;23;20231;-75
2023/04/01 07:22:59;;;;;;;38.50;17.47;;;;;;;-145.18;100.00;46664.31;6181868;23;20556;-74
2023/04/01 07:25:30;;;;;;;47.03;16.17;;;;;;;-145.18;100.00;46664.31;6182217;23;20293;-74
2023/04/01 07:28:11;;;;;;;43.50;18.80;;;;;;;-145.18;100.00;46666.25;6181864;23;20314;-75
2023/04/01 07:30:50;;;;;;;40.00;17.10;;;;;;;-145.18;100.00;46668.22;6181950;23;20230;-74
2023/04/01 07:33:24;;;;;;;43.53;17.77;;;;;;;-145.18;100.00;46668.22;6180961;23;20227;-75
2023/04/01 07:36:05;;;;;;;35.90;16.40;;;;;;;-145.18;100.00;46664.31;6182148;23;20699;-75
2023/04/01 07:39:09;;;;;;;44.07;16.73;;;;;;;-145.18;100.00;46666.25;6181503;23;20241;-74
2023/04/01 07:41:40;;;;;;;37.97;15.33;;;;;;;-145.18;100.00;46666.25;6115075;23;20239;-75
2023/04/01 07:44:18;;;;;;;32.50;16.57;;;;;;;-145.18;100.00;46664.31;6181332;23;20223;-75
2023/04/01 07:47:03;;;;;;;37.73;15.30;;;;;;;-145.18;100.00;46666.25;6182457;23;20640;-75
2023/04/01 07:49:47;;;;;;;35.63;15.00;;;;;;;-145.18;100.00;46660.41;6180156;23;20251;-75
2023/04/01 07:52:37;;;;;;;52.33;19.97;;;;;;;-145.18;100.00;46662.34;6181725;23;20231;-75
2023/04/01 07:55:29;;;;;;;39.17;15.83;;;;;;;-145.18;100.00;46672.13;6179498;23;20703;-75
2023/04/01 07:58:09;;;;;;;34.80;14.43;;;;;;;-145.18;100.00;46660.41;6183658;23;20776;-75
2023/04/01 08:00:46;;;;;;;30.57;12.83;;;;;;;-145.18;100.00;46660.41;6182266;23;20231;-75
2023/04/01 08:03:18;;;;;;;40.47;16.33;;;;;;;-145.18;100.00;46660.41;6181971;23;20338;-75
2023/04/01 08:05:53;;;;;;;38.83;16.93;;;;;;;-145.18;100.00;46664.31;6183200;23;20556;-75
2023/04/01 08:08:27;;;;;;;42.60;15.65;;;;;;;-145.18;100.00;46664.31;6180582;23;20550;-75
2023/04/01 08:11:25;;;;;;;40.73;15.33;;;;;;;-145.18;100.00;46662.34;6182714;23;20012;-75
2023/04/01 08:14:16;;;;;;;37.57;14.43;;;;;;;-145.18;100.00;46664.31;6182964;23;20667;-75
2023/04/01 08:17:13;;;;;;;33.17;14.60;;;;;;;-145.18;100.00;46658.44;6183596;23;20233;-75
2023/04/01 08:19:41;;;;;;;30.10;13.33;;;;;;;-145.18;100.00;46656.50;6103903;23;20273;-75
2023/04/01 08:22:15;;;;;;;33.43;15.87;;;;;;;-145.18;100.00;46660.41;6182817;23;20254;-75
2023/04/01 08:24:46;;;;;;;40.00;15.50;;;;;;;-145.18;100.00;46658.44;6180451;23;20234;-75
2023/04/01 08:27:31;;;;;;;28.43;13.00;;;;;;;-145.18;100.00;46658.44;6181784;23;20227;-75
2023/04/01 08:30:05;;;;;;;29.80;12.77;;;;;;;-145.18;100.00;46658.44;6183118;23;20250;-75
2023/04/01 08:32:46;;;;;;;29.63;14.87;;;;;;;-145.18;100.00;46660.41;6183296;23;20253;-75
2023/04/01 08:35:32;;;;;;;27.30;13.33;;;;;;;-145.18;100.00;46656.50;6182662;23;20239;-75
2023/04/01 08:38:05;;;;;;;27.27;13.57;;;;;;;-145.18;100.00;46662.34;6183492;23;20231;-75
2023/04/01 08:40:59;;;;;;;24.00;11.93;;;;;;;-145.18;100.00;46660.41;6182714;23;20013;-75
2023/04/01 08:43:48;;;;;;;26.90;12.47;;;;;;;-145.18;100.00;46656.50;6178241;23;20257;-75
2023/04/01 08:46:39;;;;;;;19.73;9.77;;;;;;;-145.18;100.00;46656.50;6183213;23;20331;-75
2023/04/01 08:49:24;;;;;;;20.97;8.53;;;;;;;-145.18;100.00;46654.53;6182208;23;20283;-75
2023/04/01 08:52:11;;;;;;;18.47;8.67;;;;;;;-145.18;100.00;46660.41;6183048;23;20226;-74
2023/04/01 08:54:48;;;;;;;15.83;8.13;;;;;;;-145.18;100.00;46660.41;6182938;23;20223;-75
2023/04/01 08:57:31;;;;;;;15.43;7.13;;;;;;;-145.18;100.00;46664.31;6183183;23;20627;-75
2023/04/01 09:00:15;;;;;;;16.93;8.60;;;;;;;-145.18;100.00;46662.34;6182831;23;20222;-74
2023/04/01 09:03:02;;;;;;;15.33;7.80;;;;;;;-145.18;100.00;46658.44;6182712;23;20265;-74
2023/04/01 09:05:47;;;;;;;17.07;9.43;;;;;;;-145.18;100.00;46668.22;6182890;23;20012;-75
2023/04/01 09:08:28;;;;;;;19.57;9.33;;;;;;;-145.18;100.00;46666.25;6182218;23;20266;-75
2023/04/01 09:11:05;;;;;;;17.83;9.30;;;;;;;-145.18;100.00;46672.13;6183040;23;20680;-74
2023/04/01 09:13:31;;;;;;;19.17;8.97;;;;;;;-145.18;100.00;46670.16;6182712;23;20219;-74
2023/04/01 09:16:48;;;;;;;18.37;9.40;;;;;;;-145.18;100.00;46672.13;6182756;23;20322;-74
2023/04/01 09:19:36;;;;;;;20.15;8.70;;;;;;;-145.18;100.00;46668.22;6061950;23;20007;-75
2023/04/01 09:22:21;;;;;;;19.97;9.20;;;;;;;-145.18;100.00;46672.13;6176129;23;20005;-74
2023/04/01 09:24:59;;;;;;;20.23;10.27;;;;;;;-145.18;100.00;46670.16;6182521;23;20569;-75
2023/04/01 09:27:46;;;;;;;13.10;7.47;;;;;;;-145.18;100.00;46676.03;6183033;23;20277;-75
2023/04/01 09:30:20;;;;;;;22.40;9.83;;;;;;;-145.18;100.00;46672.13;6182197;23;20247;-75
2023/04/01 09:33:39;;;;;;;21.97;9.40;;;;;;;-145.18;100.00;46676.03;6182892;23;20230;-75
2023/04/01 09:36:22;;;;;;;17.53;7.33;;;;;;;-145.18;100.00;46672.13;6062608;23;20320;-75
2023/04/01 09:38:57;;;;;;;21.00;9.77;;;;;;;-145.18;100.00;46674.06;6180892;23;20714;-75
2023/04/01 09:41:29;;;;;;;20.20;9.70;;;;;;;-145.18;100.00;46676.03;6182860;23;20215;-75
2023/04/01 09:44:03;;;;;;;22.00;9.80;;;;;;;-145.18;100.00;46672.13;6182463;23;20036;-74
2023/04/01 09:46:54;;;;;;;25.27;10.33;;;;;;;-145.18;100.00;46676.03;6182734;23;20227;-75
2023/04/01 09:49:42;;;;;;;24.43;10.47;;;;;;;-145.18;100.00;46672.13;6181655;23;20258;-75
2023/04/01 09:52:36;;;;;;;22.13;8.90;;;;;;;-145.18;100.00;46679.94;6182346;23;20250;-75
2023/04/01 09:55:26;;;;;;;16.63;7.47;;;;;;;-145.18;100.00;46679.94;6182091;23;20239;-75
2023/04/01 09:58:25;;;;;;;17.83;8.27;;;;;;;-145.18;100.00;46677.97;6182615;23;20231;-75
2023/04/01 10:01:12;;;;;;;29.03;10.03;;;;;;;-145.18;100.00;46674.06;6182475;23;20314;-74
2023/04/01 10:03:53;;;;;;;25.00;10.93;;;;;;;-145.18;100.00;46674.06;6182420;23;20781;-75
2023/04/01 10:06:50;;;;;;;21.30;8.87;;;;;;;-145.18;100.00;46676.03;6182579;23;20592;-75
2023/04/01 10:09:28;;;;;;;25.93;10.27;;;;;;;-145.18;100.00;46677.97;6181804;23;20245;-75
2023/04/01 10:12:08;;;;;;;22.27;10.37;;;;;;;-145.18;100.00;46674.06;6182218;23;20227;-75
2023/04/01 10:14:46;;;;;;;28.47;11.73;;;;;;;-145.18;100.00;46679.94;6181838;23;20211;-74
2023/04/01 10:17:17;;;;;;;26.10;9.33;;;;;;;-145.18;100.00;46677.97;6182125;23;20234;-75
2023/04/01 10:20:04;;;;;;;23.63;8.97;;;;;;;-145.18;100.00;46676.03;6181886;23;20222;-75
2023/04/01 10:22:35;;;;;;;24.13;9.67;;;;;;;-145.18;100.00;46677.97;6182682;23;20219;-75
2023/04/01 10:25:45;;;;;;;21.10;8.87;;;;;;;-145.18;100.00;46674.06;6181865;23;20298;-75
2023/04/01 10:29:02;;;;;;;21.57;9.30;;;;;;;-145.18;100.00;46676.03;6182065;23;22149;-76
2023/04/01 10:32:05;;;;;;;24.88;9.80;;;;;;;-145.18;100.00;46674.06;6117441;23;20258;-75
2023/04/01 10:35:04;;;;;;;19.10;9.07;;;;;;;-145.18;100.00;46676.03;6182082;23;20075;-75
2023/04/01 10:37:41;;;;;;;29.30;10.43;;;;;;;-145.18;100.00;46676.03;6182452;23;20261;-75
2023/04/01 10:40:07;;;;;;;33.10;9.87;;;;;;;-145.18;100.00;46672.13;6181689;23;20560;-75
2023/04/01 10:43:04;;;;;;;35.83;12.90;;;;;;;-145.18;100.00;46674.06;6182212;23;20223;-74
2023/04/01 10:46:03;;;;;;;21.30;8.70;;;;;;;-145.18;100.00;46676.03;6103258;23;20131;-74
2023/04/01 10:48:53;;;;;;;16.80;7.90;;;;;;;-145.18;100.00;46676.03;6180835;23;20255;-74
2023/04/01 10:51:25;;;;;;;15.93;7.13;;;;;;;-145.18;100.00;46674.06;6181447;23;20313;-74
2023/04/01 10:54:27;;;;;;;20.27;8.60;;;;;;;-145.18;100.00;46674.06;6181385;23;20715;-74
2023/04/01 10:56:58;;;;;;;19.27;8.03;;;;;;;-145.18;100.00;46672.13;6181268;23;20314;-74
2023/04/01 10:59:42;;;;;;;17.80;8.27;;;;;;;-145.18;100.00;46674.06;6181167;23;20691;-74
2023/04/01 11:02:25;;;;;;;20.50;9.70;;;;;;;-145.18;100.00;46670.16;6180979;23;20226;-74
2023/04/01 11:05:15;;;;;;;16.10;6.40;;;;;;;-145.18;100.00;46676.03;6181131;23;20350;-74
2023/04/01 11:08:08;;;;;;;14.13;6.60;;;;;;;-145.18;100.00;46672.13;6181726;23;20227;-73
2023/04/01 11:10:55;;;;;;;10.17;4.93;;;;;;;-145.18;100.00;46672.13;6181157;23;21011;-73
2023/04/01 11:13:39;;;;;;;14.77;6.40;;;;;;;-145.18;100.00;46674.06;6181646;23;20661;-73
2023/04/01 11:16:41;;;;;;;9.50;4.67;;;;;;;-145.18;100.00;46674.06;6180808;23;20278;-74
2023/04/01 11:19:25;;;;;;;13.23;6.10;;;;;;;-145.18;100.00;46672.13;6181168;23;20223;-73
2023/04/01 11:22:14;;;;;;;16.77;6.83;;;;;;;-145.18;100.00;46676.03;6181344;23;20369;-73
2023/04/01 11:25:04;;;;;;;11.27;5.87;;;;;;;-145.18;100.00;46676.03;6180495;23;20277;-73
2023/04/01 11:27:56;;;;;;;19.93;7.07;;;;;;;-145.18;100.00;46677.97;6182054;23;20684;-74
2023/04/01 11:31:01;;;;;;;12.30;5.90;;;;;;;-145.18;100.00;46676.03;6180263;23;20240;-74
2023/04/01 11:33:30;;;;;;;16.37;7.40;;;;;;;-145.18;100.00;46674.06;6085661;23;20284;-74
2023/04/01 11:36:07;;;;;;;21.60;8.33;;;;;;;-145.18;100.00;46672.13;6182231;23;20238;-75